Time;durP1;ratioP1;P1;durP2;ratioP2;P2;SDS_P1;SDS_P2;PMS_P1;PMS_P2;Temp;Humidity;BMP_temperature;BMP_pressure;BME280_temperature;BME280_humidity;BME280_pressure;Samples;Min_cycle;Max_cycle;Signal;HPM_P1;HPM_P2
2022/01/06 00:01:05;;;;;;;;;;;;;;;17.98;49.34;101626.19;5039186;28;20020;-40
2022/01/06 00:03:33;;;;;;;;;;;;;;;17.95;49.54;101639.84;5034896;28;19968;-40
2022/01/06 00:06:06;;;;;;;;;;;;;;;17.94;49.44;101641.69;5038911;28;19951;-40
2022/01/06 00:08:34;;;;;;;;;;;;;;;17.94;49.10;101648.88;5041235;28;20020;-40
2022/01/06 00:11:01;;;;;;;;;;;;;;;17.92;49.50;101640.97;5040258;28;19931;-40
2022/01/06 00:13:35;;;;;;;;;;;;;;;17.92;49.29;101640.09;5040565;28;19929;-39
2022/01/06 00:16:23;;;;;;;;;;;;;;;17.92;49.33;101648.16;5039579;28;20239;-39
2022/01/06 00:24:13;;;;;;;;;;;;;;;17.89;49.02;101643.06;5040199;28;20477;-39
2022/01/06 00:26:40;;;;;;;;;;;;;;;17.87;50.01;101647.72;5039394;28;19939;-39
2022/01/06 00:29:06;;;;;;;;;;;;;;;17.87;49.65;101648.56;5042924;28;20580;-39
2022/01/06 00:31:33;;;;;;;;;;;;;;;17.86;49.40;101652.22;5042781;28;19929;-39
2022/01/06 00:34:00;;;;;;;;;;;;;;;17.85;49.38;101650.53;5036162;28;19978;-39
2022/01/06 00:36:26;;;;;;;;;;;;;;;17.86;49.79;101652.22;5041817;28;19933;-39
2022/01/06 00:38:53;;;;;;;;;;;;;;;17.86;49.55;101648.69;5040739;28;19928;-39
2022/01/06 00:41:19;;;;;;;;;;;;;;;17.83;49.48;101659.69;5039855;28;19939;-39
2022/01/06 00:43:46;;;;;;;;;;;;;;;17.84;49.32;101658.69;5039258;28;19943;-39
2022/01/06 00:46:12;;;;;;;;;;;;;;;17.84;49.30;101664.06;5040737;28;19929;-39
2022/01/06 00:48:39;;;;;;;;;;;;;;;17.83;49.24;101657.84;5039844;28;19990;-39
2022/01/06 00:51:06;;;;;;;;;;;;;;;17.83;49.37;101659.69;5038293;28;19944;-39
2022/01/06 00:53:32;;;;;;;;;;;;;;;17.82;49.12;101658.00;5040747;28;19929;-39
2022/01/06 00:55:58;;;;;;;;;;;;;;;17.82;49.37;101660.69;5041785;28;19951;-39
2022/01/06 00:58:25;;;;;;;;;;;;;;;17.81;49.09;101651.78;5036383;28;19955;-39
2022/01/06 01:00:51;;;;;;;;;;;;;;;17.81;49.40;101661.63;5040324;28;19935;-40
2022/01/06 01:03:19;;;;;;;;;;;;;;;17.81;49.16;101656.28;5039023;28;20342;-41
2022/01/06 01:05:47;;;;;;;;;;;;;;;17.81;49.06;101661.63;5037407;28;20509;-40
2022/01/06 01:08:14;;;;;;;;;;;;;;;17.80;49.32;101666.16;5039931;28;20036;-40
2022/01/06 01:10:41;;;;;;;;;;;;;;;17.79;49.26;101663.63;5042599;28;19928;-40
2022/01/06 01:13:12;;;;;;;;;;;;;;;17.79;49.16;101666.28;5039095;28;19929;-40
2022/01/06 01:15:49;;;;;;;;;;;;;;;17.78;48.91;101680.69;5039615;28;19968;-40
2022/01/06 01:18:20;;;;;;;;;;;;;;;17.76;49.05;101681.66;5038251;28;19994;-39
2022/01/06 01:20:47;;;;;;;;;;;;;;;17.74;49.24;101683.63;5038822;28;20217;-39
2022/01/06 01:23:14;;;;;;;;;;;;;;;17.73;49.15;101684.59;5037573;28;19928;-40
2022/01/06 01:25:41;;;;;;;;;;;;;;;17.73;48.95;101689.94;5041014;28;19932;-40
2022/01/06 01:28:07;;;;;;;;;;;;;;;17.72;49.06;101698.09;5041377;28;19935;-39
2022/01/06 01:30:42;;;;;;;;;;;;;;;17.71;48.95;101701.78;5040618;28;20344;-39
2022/01/06 01:33:15;;;;;;;;;;;;;;;17.70;49.33;101700.94;5036032;28;20499;-39
2022/01/06 01:35:41;;;;;;;;;;;;;;;17.69;49.05;101706.44;5039036;28;19928;-39
2022/01/06 01:38:08;;;;;;;;;;;;;;;17.69;48.81;101711.78;5036261;28;20284;-39
2022/01/06 01:40:34;;;;;;;;;;;;;;;17.66;49.29;101710.22;5039996;28;20344;-39
2022/01/06 01:43:01;;;;;;;;;;;;;;;17.67;48.87;101725.31;5040209;28;20332;-39
2022/01/06 01:45:30;;;;;;;;;;;;;;;17.65;49.08;101727.28;5041070;28;19929;-40
2022/01/06 01:47:59;;;;;;;;;;;;;;;17.65;49.29;101735.34;5037503;28;20252;-40
2022/01/06 01:50:26;;;;;;;;;;;;;;;17.63;48.99;101737.28;5036461;28;19939;-39
2022/01/06 01:52:54;;;;;;;;;;;;;;;17.63;49.26;101737.28;5040234;28;19929;-40
2022/01/06 01:55:21;;;;;;;;;;;;;;;17.62;49.12;101740.94;5040200;28;20713;-40
2022/01/06 01:57:48;;;;;;;;;;;;;;;17.62;49.31;101743.63;5035398;28;19941;-40
2022/01/06 02:00:16;;;;;;;;;;;;;;;17.62;49.33;101750.81;5040095;28;20145;-39
2022/01/06 02:02:42;;;;;;;;;;;;;;;17.62;49.23;101757.03;5039904;28;19933;-40
2022/01/06 02:05:09;;;;;;;;;;;;;;;17.60;49.70;101745.56;5036350;28;19929;-39
2022/01/06 02:07:38;;;;;;;;;;;;;;;17.62;49.36;101738.25;5041069;28;19940;-39
2022/01/06 02:10:05;;;;;;;;;;;;;;;17.62;49.22;101734.75;5038543;28;19933;-40
2022/01/06 02:12:35;;;;;;;;;;;;;;;17.62;49.37;101743.63;5036426;28;20395;-39
2022/01/06 02:15:02;;;;;;;;;;;;;;;17.59;49.71;101737.66;5038821;28;20525;-39
2022/01/06 02:17:29;;;;;;;;;;;;;;;17.59;49.95;101741.19;5037153;28;20019;-39
2022/01/06 02:19:56;;;;;;;;;;;;;;;17.59;49.50;101743.03;5037096;28;19928;-39
2022/01/06 02:22:22;;;;;;;;;;;;;;;17.58;49.77;101744.88;5039209;28;19956;-39
2022/01/06 02:24:49;;;;;;;;;;;;;;;17.59;49.77;101740.34;5037877;28;19929;-39
2022/01/06 02:27:16;;;;;;;;;;;;;;;17.59;49.50;101748.38;5037326;28;19933;-39
2022/01/06 02:29:43;;;;;;;;;;;;;;;17.59;49.65;101745.72;5036019;28;20001;-39
2022/01/06 02:32:10;;;;;;;;;;;;;;;17.57;49.54;101748.53;5037780;28;19940;-39
2022/01/06 02:34:37;;;;;;;;;;;;;;;17.56;49.76;101757.53;5039407;28;19939;-39
2022/01/06 02:37:03;;;;;;;;;;;;;;;17.57;49.59;101744.97;5034706;28;19929;-39
2022/01/06 02:39:30;;;;;;;;;;;;;;;17.56;49.60;101754.84;5038622;28;19935;-39
2022/01/06 02:41:56;;;;;;;;;;;;;;;17.55;49.84;101763.03;5038026;28;19940;-39
2022/01/06 02:44:26;;;;;;;;;;;;;;;17.52;49.55;101764.13;5037211;28;20726;-39
2022/01/06 02:46:53;;;;;;;;;;;;;;;17.53;49.64;101757.81;5038100;28;20179;-39
2022/01/06 02:49:20;;;;;;;;;;;;;;;17.52;49.68;101770.34;5039705;28;20371;-39
2022/01/06 02:51:46;;;;;;;;;;;;;;;17.52;49.90;101766.81;5037897;28;20637;-40
2022/01/06 02:54:14;;;;;;;;;;;;;;;17.51;49.57;101773.16;5037490;28;19929;-39
2022/01/06 02:56:43;;;;;;;;;;;;;;;17.49;50.00;101762.56;5036483;28;19933;-40
2022/01/06 02:59:09;;;;;;;;;;;;;;;17.50;49.47;101771.47;5040796;28;20039;-39
2022/01/06 03:01:40;;;;;;;;;;;;;;;17.49;49.47;101777.81;5037423;28;19935;-40
2022/01/06 03:04:07;;;;;;;;;;;;;;;17.47;49.52;101775.22;5037980;28;20298;-39
2022/01/06 03:06:34;;;;;;;;;;;;;;;17.47;49.84;101771.72;5038879;28;19929;-39
2022/01/06 03:09:00;;;;;;;;;;;;;;;17.46;49.42;101773.53;5035301;28;19952;-40
2022/01/06 03:11:27;;;;;;;;;;;;;;;17.45;49.26;101779.03;5035947;28;19939;-40
2022/01/06 03:13:53;;;;;;;;;;;;;;;17.44;49.54;101777.31;5035481;28;19929;-40
2022/01/06 03:16:20;;;;;;;;;;;;;;;17.43;49.40;101783.66;5039011;28;19929;-39
2022/01/06 03:18:47;;;;;;;;;;;;;;;17.41;49.23;101777.59;5036542;28;20020;-40
2022/01/06 03:21:13;;;;;;;;;;;;;;;17.42;49.25;101777.44;5036258;28;19932;-40
2022/01/06 03:23:40;;;;;;;;;;;;;;;17.40;49.63;101773.19;5040427;28;19929;-40
2022/01/06 03:26:06;;;;;;;;;;;;;;;17.40;49.03;101770.50;5038667;28;19967;-39
2022/01/06 03:28:33;;;;;;;;;;;;;;;17.39;49.54;101769.66;5034092;28;19929;-40
2022/01/06 03:30:59;;;;;;;;;;;;;;;17.39;49.30;101768.81;5037996;28;20023;-40
2022/01/06 03:33:26;;;;;;;;;;;;;;;17.38;49.14;101777.84;5034739;28;20368;-40
2022/01/06 03:35:52;;;;;;;;;;;;;;;17.38;49.49;101777.84;5036505;28;19933;-40
2022/01/06 03:38:18;;;;;;;;;;;;;;;17.36;49.56;101774.41;5038493;28;19929;-39
2022/01/06 03:40:45;;;;;;;;;;;;;;;17.35;49.42;101775.41;5041025;28;20007;-40
2022/01/06 03:43:11;;;;;;;;;;;;;;;17.35;49.25;101780.75;5052405;28;19951;-40
2022/01/06 03:45:38;;;;;;;;;;;;;;;17.34;49.01;101781.75;5044989;28;20465;-39
2022/01/06 03:48:05;;;;;;;;;;;;;;;17.31;49.50;101777.47;5038171;28;19933;-39
2022/01/06 03:50:31;;;;;;;;;;;;;;;17.31;49.62;101784.66;5039322;28;19929;-40
2022/01/06 03:52:58;;;;;;;;;;;;;;;17.31;49.37;101790.03;5041555;28;19963;-39
2022/01/06 03:55:24;;;;;;;;;;;;;;;17.29;49.43;101782.13;5040728;28;19935;-39
2022/01/06 03:57:50;;;;;;;;;;;;;;;17.27;49.05;101784.91;5040431;28;20377;-39
2022/01/06 04:00:18;;;;;;;;;;;;;;;17.27;49.17;101787.59;5038538;28;20406;-39
2022/01/06 04:02:46;;;;;;;;;;;;;;;17.27;49.29;101784.91;5042580;28;19932;-39
2022/01/06 04:05:13;;;;;;;;;;;;;;;17.25;49.10;101800.28;5040189;28;19936;-39
2022/01/06 04:07:40;;;;;;;;;;;;;;;17.25;49.29;101797.59;5039282;28;20017;-39
2022/01/06 04:10:07;;;;;;;;;;;;;;;17.23;49.01;101806.72;5039383;28;19933;-40
2022/01/06 04:12:35;;;;;;;;;;;;;;;17.24;48.97;101820.00;5043365;28;20145;-40
2022/01/06 04:15:08;;;;;;;;;;;;;;;17.22;49.51;101813.91;5040063;28;19933;-40
2022/01/06 04:17:34;;;;;;;;;;;;;;;17.24;49.65;101803.91;5039958;28;19933;-39
2022/01/06 04:20:01;;;;;;;;;;;;;;;17.22;48.58;101811.25;5041097;28;19940;-40
2022/01/06 04:22:27;;;;;;;;;;;;;;;17.30;48.98;101818.66;5039316;28;19936;-40
2022/01/06 04:24:54;;;;;;;;;;;;;;;17.38;48.94;101813.53;5041650;28;19932;-39
2022/01/06 04:27:20;;;;;;;;;;;;;;;17.47;48.79;101812.75;5040266;28;19960;-40
2022/01/06 04:29:47;;;;;;;;;;;;;;;17.59;48.78;101818.09;5042949;28;19932;-40
2022/01/06 04:32:13;;;;;;;;;;;;;;;17.70;48.51;101816.22;5040902;28;20303;-39
2022/01/06 04:34:39;;;;;;;;;;;;;;;17.82;48.58;101824.25;5040122;28;19936;-39
2022/01/06 04:37:06;;;;;;;;;;;;;;;17.93;48.61;101818.81;5043113;28;19933;-39
2022/01/06 04:39:32;;;;;;;;;;;;;;;18.03;48.42;101822.44;5036317;28;19929;-39
2022/01/06 04:41:59;;;;;;;;;;;;;;;18.14;48.10;101829.59;5038340;28;20354;-40
2022/01/06 04:44:25;;;;;;;;;;;;;;;18.23;47.96;101843.06;5041083;28;19928;-39
2022/01/06 04:46:52;;;;;;;;;;;;;;;18.34;47.92;101846.69;5041858;28;19929;-39
2022/01/06 04:49:18;;;;;;;;;;;;;;;18.41;47.77;101840.66;5038376;28;19935;-39
2022/01/06 04:51:45;;;;;;;;;;;;;;;18.49;47.57;101837.28;5041960;28;19925;-40
2022/01/06 04:54:11;;;;;;;;;;;;;;;18.57;47.26;101833.94;5038327;28;19935;-40
2022/01/06 04:56:38;;;;;;;;;;;;;;;18.65;47.22;101835.00;5041092;28;19942;-40
2022/01/06 04:59:05;;;;;;;;;;;;;;;18.71;47.15;101842.53;5040403;28;19933;-40
2022/01/06 05:01:31;;;;;;;;;;;;;;;18.77;47.07;101838.44;5040288;28;19939;-40
2022/01/06 05:03:58;;;;;;;;;;;;;;;18.83;46.66;101839.78;5039188;28;20039;-40
2022/01/06 05:06:25;;;;;;;;;;;;;;;18.87;46.75;101843.88;5037246;28;20384;-40
2022/01/06 05:08:51;;;;;;;;;;;;;;;18.89;46.34;101849.97;5041458;28;19928;-40
2022/01/06 05:11:17;;;;;;;;;;;;;;;18.91;46.88;101851.53;5038170;28;19939;-40
2022/01/06 05:13:44;;;;;;;;;;;;;;;18.93;46.73;101856.75;5038285;28;19933;-40
2022/01/06 05:16:10;;;;;;;;;;;;;;;18.94;46.20;101855.81;5041581;28;19932;-40
2022/01/06 05:18:38;;;;;;;;;;;;;;;18.95;46.40;101857.50;5039071;28;19933;-40
2022/01/06 05:21:05;;;;;;;;;;;;;;;18.94;45.97;101863.88;5038254;28;19959;-40
2022/01/06 05:23:32;;;;;;;;;;;;;;;18.91;45.92;101861.44;5038527;28;19929;-40
2022/01/06 05:25:58;;;;;;;;;;;;;;;18.88;45.52;101861.69;5041778;28;20233;-40
2022/01/06 05:28:25;;;;;;;;;;;;;;;18.86;46.00;101861.84;5039054;28;19943;-40
2022/01/06 05:30:52;;;;;;;;;;;;;;;18.83;45.84;101877.38;5040269;28;19939;-40
2022/01/06 05:33:18;;;;;;;;;;;;;;;18.79;45.93;101873.25;5040561;28;19936;-39
2022/01/06 05:35:45;;;;;;;;;;;;;;;18.73;46.25;101862.06;5035354;28;19935;-39
2022/01/06 05:38:11;;;;;;;;;;;;;;;18.69;46.03;101865.97;5038016;28;19939;-39
2022/01/06 05:40:38;;;;;;;;;;;;;;;18.67;46.29;101859.88;5041062;28;19941;-39
2022/01/06 05:43:09;;;;;;;;;;;;;;;18.61;46.02;101857.69;5040642;28;19929;-39
2022/01/06 05:45:36;;;;;;;;;;;;;;;18.57;46.08;101867.00;5039218;28;20094;-39
2022/01/06 05:48:03;;;;;;;;;;;;;;;18.54;45.97;101866.44;5038453;28;19936;-39
2022/01/06 05:50:29;;;;;;;;;;;;;;;18.50;46.39;101871.22;5040071;28;19943;-39
2022/01/06 05:52:55;;;;;;;;;;;;;;;18.48;45.96;101876.72;5037582;28;19928;-38
2022/01/06 05:55:22;;;;;;;;;;;;;;;18.46;46.16;101875.16;5038413;28;19933;-39
2022/01/06 05:57:50;;;;;;;;;;;;;;;18.40;46.37;101875.66;5040413;28;20617;-39
2022/01/06 06:00:17;;;;;;;;;;;;;;;18.36;46.29;101884.97;5038212;28;19966;-39
2022/01/06 06:02:47;;;;;;;;;;;;;;;18.32;46.53;101894.25;5038604;28;19936;-39
2022/01/06 06:05:13;;;;;;;;;;;;;;;18.31;46.91;101893.41;5038921;28;20572;-39
2022/01/06 06:07:40;;;;;;;;;;;;;;;18.28;46.60;101898.19;5037384;28;20348;-39
2022/01/06 06:10:06;;;;;;;;;;;;;;;18.22;46.39;101895.03;5037180;28;19939;-39
2022/01/06 06:12:33;;;;;;;;;;;;;;;18.18;46.33;101903.47;5038556;28;20243;-39
2022/01/06 06:14:59;;;;;;;;;;;;;;;18.17;46.25;101899.06;5038935;28;20495;-40
2022/01/06 06:17:25;;;;;;;;;;;;;;;18.13;46.57;101905.69;5037981;28;20481;-39
2022/01/06 06:19:52;;;;;;;;;;;;;;;18.11;46.43;101913.88;5036888;28;19972;-40
2022/01/06 06:22:18;;;;;;;;;;;;;;;18.07;46.89;101911.56;5041763;28;19928;-39
2022/01/06 06:24:45;;;;;;;;;;;;;;;18.04;46.52;101909.97;5035473;28;19935;-40
2022/01/06 06:27:11;;;;;;;;;;;;;;;18.02;46.58;101913.78;5038618;28;19939;-39
2022/01/06 06:29:37;;;;;;;;;;;;;;;17.99;46.84;101915.72;5036096;28;20368;-40
2022/01/06 06:32:05;;;;;;;;;;;;;;;17.95;46.64;101919.66;5035586;28;19956;-40
2022/01/06 06:34:31;;;;;;;;;;;;;;;17.91;46.69;101912.84;5034165;28;19932;-40
2022/01/06 06:36:57;;;;;;;;;;;;;;;17.90;46.89;101918.34;5038026;28;19929;-40
2022/01/06 06:39:24;;;;;;;;;;;;;;;17.87;47.07;101918.59;5035971;28;20354;-40
2022/01/06 06:41:50;;;;;;;;;;;;;;;17.83;46.69;101928.72;5038247;28;19935;-39
2022/01/06 06:44:17;;;;;;;;;;;;;;;17.82;47.29;101936.88;5035404;28;19933;-39
2022/01/06 06:46:43;;;;;;;;;;;;;;;17.79;46.93;101934.44;5036203;28;19928;-39
2022/01/06 06:49:09;;;;;;;;;;;;;;;17.76;47.06;101932.88;5035402;28;19933;-40
2022/01/06 06:51:36;;;;;;;;;;;;;;;17.74;47.24;101935.69;5035476;28;19935;-39
2022/01/06 06:54:07;;;;;;;;;;;;;;;17.72;47.40;101942.94;5038831;28;20411;-39
2022/01/06 06:56:34;;;;;;;;;;;;;;;17.68;47.03;101933.44;5034844;28;20303;-39
2022/01/06 06:59:00;;;;;;;;;;;;;;;17.68;47.47;101944.19;5036652;28;20332;-39
2022/01/06 07:01:26;;;;;;;;;;;;;;;17.65;47.33;101944.44;5036121;28;19963;-39
2022/01/06 07:03:53;;;;;;;;;;;;;;;17.63;47.69;101953.59;5036573;28;20031;-39
2022/01/06 07:06:19;;;;;;;;;;;;;;;17.61;46.95;101960.88;5042331;28;19929;-39
2022/01/06 07:08:46;;;;;;;;;;;;;;;17.58;46.82;101969.19;5039660;28;20011;-40
2022/01/06 07:11:12;;;;;;;;;;;;;;;17.55;46.80;101972.97;5034899;28;19975;-40
2022/01/06 07:13:38;;;;;;;;;;;;;;;17.51;46.72;101976.88;5030183;28;19928;-39
2022/01/06 07:16:05;;;;;;;;;;;;;;;17.49;47.07;101971.63;5034036;28;19933;-39
2022/01/06 07:18:31;;;;;;;;;;;;;;;17.48;47.23;101967.22;5039739;28;19929;-39
2022/01/06 07:20:57;;;;;;;;;;;;;;;17.46;47.40;101965.66;5037293;28;19939;-39
2022/01/06 07:23:24;;;;;;;;;;;;;;;17.45;47.34;101964.81;5035216;28;20016;-39
2022/01/06 07:25:50;;;;;;;;;;;;;;;17.44;47.88;101970.28;5036639;28;19935;-39
2022/01/06 07:28:17;;;;;;;;;;;;;;;17.42;47.52;101975.78;5032040;28;19936;-39
2022/01/06 07:30:43;;;;;;;;;;;;;;;17.40;47.58;101966.13;5036238;28;19940;-39
2022/01/06 07:33:09;;;;;;;;;;;;;;;17.41;47.37;101978.59;5034943;28;19929;-40
2022/01/06 07:35:36;;;;;;;;;;;;;;;17.38;47.66;101978.81;5029617;28;19935;-40
2022/01/06 07:38:02;;;;;;;;;;;;;;;17.39;47.99;101983.19;5035213;28;20051;-39
2022/01/06 07:40:28;;;;;;;;;;;;;;;17.36;47.80;101986.13;5031205;28;19934;-39
2022/01/06 07:42:55;;;;;;;;;;;;;;;17.36;48.10;101980.75;5028295;28;20140;-39
2022/01/06 07:45:21;;;;;;;;;;;;;;;17.35;48.29;101977.22;5035832;28;20241;-40
2022/01/06 07:47:56;;;;;;;;;;;;;;;17.34;47.87;101972.84;5035420;28;19932;-40
2022/01/06 07:50:28;;;;;;;;;;;;;;;17.34;47.82;101980.03;5029725;28;20232;-40
2022/01/06 07:52:55;;;;;;;;;;;;;;;17.32;47.97;101982.81;5032794;28;20337;-40
2022/01/06 07:55:21;;;;;;;;;;;;;;;17.32;47.74;101987.34;5035646;28;19929;-39
2022/01/06 07:57:48;;;;;;;;;;;;;;;17.30;48.24;101987.47;5030848;28;19932;-39
2022/01/06 08:00:14;;;;;;;;;;;;;;;17.28;46.74;101987.56;5037400;28;19929;-39
2022/01/06 08:02:41;;;;;;;;;;;;;;;17.27;47.26;101993.06;5033786;28;20354;-40
2022/01/06 08:05:10;;;;;;;;;;;;;;;17.22;47.62;101990.75;5031313;28;19936;-40
2022/01/06 08:07:36;;;;;;;;;;;;;;;17.21;47.62;101997.09;5033072;28;19933;-40
2022/01/06 08:10:03;;;;;;;;;;;;;;;17.22;47.40;101998.78;5031415;28;19929;-40
2022/01/06 08:12:30;;;;;;;;;;;;;;;17.21;47.41;101994.41;5035511;28;19929;-40
2022/01/06 08:14:56;;;;;;;;;;;;;;;17.21;47.51;101994.41;5031330;28;19959;-40
2022/01/06 08:17:22;;;;;;;;;;;;;;;17.21;47.87;101991.72;5030968;28;19939;-40
2022/01/06 08:19:49;;;;;;;;;;;;;;;17.20;47.76;101992.69;5033239;28;19939;-40
2022/01/06 08:22:15;;;;;;;;;;;;;;;17.20;47.90;101998.03;5034398;28;19950;-40
2022/01/06 08:24:41;;;;;;;;;;;;;;;17.20;47.85;101994.50;5028430;28;19929;-40
2022/01/06 08:27:08;;;;;;;;;;;;;;;17.19;47.90;102001.69;5036187;28;19955;-39
2022/01/06 08:29:35;;;;;;;;;;;;;;;17.19;47.69;102003.53;5031330;28;19933;-40
2022/01/06 08:32:02;;;;;;;;;;;;;;;17.19;47.74;102015.09;5035041;28;20394;-39
2022/01/06 08:34:28;;;;;;;;;;;;;;;17.17;48.21;102009.00;5035978;28;19932;-40
2022/01/06 08:36:55;;;;;;;;;;;;;;;17.18;48.34;102008.03;5038774;28;20474;-40
2022/01/06 08:39:21;;;;;;;;;;;;;;;17.18;48.12;102005.34;5033617;28;19950;-40
2022/01/06 08:41:48;;;;;;;;;;;;;;;17.21;48.25;102001.59;5034680;28;19971;-40
2022/01/06 08:44:14;;;;;;;;;;;;;;;17.22;48.36;102001.47;5038178;28;19928;-40
2022/01/06 08:46:41;;;;;;;;;;;;;;;17.24;47.17;102009.38;5038162;28;20180;-39
2022/01/06 08:49:11;;;;;;;;;;;;;;;17.27;47.84;102009.97;5036325;28;19943;-39
2022/01/06 08:51:41;;;;;;;;;;;;;;;17.32;48.60;102017.66;5037840;28;19935;-39
2022/01/06 08:54:07;;;;;;;;;;;;;;;17.38;47.86;102014.50;5038691;28;19933;-39
2022/01/06 08:56:35;;;;;;;;;;;;;;;17.45;48.39;102028.28;5036835;28;20368;-39
2022/01/06 08:59:02;;;;;;;;;;;;;;;17.50;48.27;102026.94;5034817;28;19939;-38
2022/01/06 09:01:28;;;;;;;;;;;;;;;17.53;49.09;102028.53;5033987;28;19933;-44
2022/01/06 09:03:54;;;;;;;;;;;;;;;17.53;48.35;102023.19;5035327;28;20249;-44
2022/01/06 09:06:21;;;;;;;;;;;;;;;17.53;48.50;102020.50;5034972;28;20549;-43
2022/01/06 09:08:48;;;;;;;;;;;;;;;17.54;48.90;102021.34;5035001;28;20343;-45
2022/01/06 09:11:14;;;;;;;;;;;;;;;17.56;47.84;102019.38;5036364;28;20252;-43
2022/01/06 09:13:44;;;;;;;;;;;;;;;17.57;48.62;102021.97;5040241;28;19928;-45
2022/01/06 09:16:10;;;;;;;;;;;;;;;17.58;47.56;102022.81;5037452;28;19939;-43
2022/01/06 09:18:37;;;;;;;;;;;;;;;17.59;47.50;102016.47;5037593;28;19943;-44
2022/01/06 09:21:04;;;;;;;;;;;;;;;17.62;47.67;102033.16;5038882;28;19929;-44
2022/01/06 09:23:31;;;;;;;;;;;;;;;17.65;47.96;102032.06;5035336;28;19958;-43
2022/01/06 09:25:57;;;;;;;;;;;;;;;17.68;47.52;102031.81;5040018;28;19974;-42
2022/01/06 09:28:23;;;;;;;;;;;;;;;17.71;47.42;102034.25;5034951;28;19929;-44
2022/01/06 09:30:51;;;;;;;;;;;;;;;17.73;47.84;102035.84;5037763;28;20343;-43
2022/01/06 09:33:18;;;;;;;;;;;;;;;17.75;47.85;102036.59;5038430;28;19988;-43
2022/01/06 09:35:45;;;;;;;;;;;;;;;17.79;47.58;102031.00;5036549;28;20328;-43
2022/01/06 09:38:12;;;;;;;;;;;;;;;17.82;47.03;102036.13;5038739;28;20244;-43
2022/01/06 09:40:42;;;;;;;;;;;;;;;17.84;47.32;102034.16;5036324;28;19933;-43
2022/01/06 09:43:12;;;;;;;;;;;;;;;17.87;47.29;102033.91;5036695;28;20023;-42
2022/01/06 09:45:39;;;;;;;;;;;;;;;17.90;47.71;102039.88;5039074;28;19937;-44
2022/01/06 09:48:06;;;;;;;;;;;;;;;17.92;48.20;102029.88;5034179;28;20015;-38
2022/01/06 09:50:33;;;;;;;;;;;;;;;17.93;47.75;102034.28;5033650;28;19928;-34
2022/01/06 09:52:59;;;;;;;;;;;;;;;17.92;47.60;102037.06;5035924;28;19939;-35
2022/01/06 09:55:25;;;;;;;;;;;;;;;17.91;47.91;102048.78;5037111;28;20345;-34
2022/01/06 09:57:59;;;;;;;;;;;;;;;17.94;48.04;102040.50;5038733;28;19935;-35
2022/01/06 10:00:27;;;;;;;;;;;;;;;18.02;48.31;102046.09;5034266;28;20020;-35
2022/01/06 10:02:58;;;;;;;;;;;;;;;18.05;47.83;102048.53;5035727;28;20406;-35
2022/01/06 10:05:26;;;;;;;;;;;;;;;18.08;48.53;102047.41;5037543;28;19963;-37
2022/01/06 10:07:53;;;;;;;;;;;;;;;18.09;48.44;102044.63;5033014;28;20348;-36
2022/01/06 10:10:24;;;;;;;;;;;;;;;18.11;48.16;102042.66;5036620;28;20034;-38
2022/01/06 10:12:55;;;;;;;;;;;;;;;18.14;47.94;102042.41;5038725;28;19935;-36
2022/01/06 10:15:22;;;;;;;;;;;;;;;18.17;47.83;102035.91;5034968;28;19929;-36
2022/01/06 10:17:49;;;;;;;;;;;;;;;18.18;47.77;102038.50;5036177;28;20105;-36
2022/01/06 10:20:17;;;;;;;;;;;;;;;18.21;47.42;102034.69;5036628;28;20498;-36
2022/01/06 10:22:48;;;;;;;;;;;;;;;18.22;47.22;102031.06;5034997;28;19929;-36
2022/01/06 10:25:15;;;;;;;;;;;;;;;18.23;47.29;102033.59;5039565;28;19935;-36
2022/01/06 10:27:44;;;;;;;;;;;;;;;18.25;47.40;102034.34;5037509;28;19928;-36
2022/01/06 10:30:11;;;;;;;;;;;;;;;18.26;47.23;102032.50;5034295;28;19929;-37
2022/01/06 10:32:38;;;;;;;;;;;;;;;18.29;47.14;102040.31;5034495;28;20328;-36
2022/01/06 10:35:05;;;;;;;;;;;;;;;18.29;47.32;102031.38;5035216;28;19959;-36
2022/01/06 10:37:35;;;;;;;;;;;;;;;18.30;47.20;102025.06;5035105;28;19933;-37
2022/01/06 10:40:07;;;;;;;;;;;;;;;18.31;47.45;102029.44;5043944;28;19929;-36
2022/01/06 10:42:34;;;;;;;;;;;;;;;18.32;46.97;102031.97;5037426;28;19940;-37
2022/01/06 10:45:14;;;;;;;;;;;;;;;18.33;47.11;102030.16;5039003;28;19929;-37
2022/01/06 10:47:42;;;;;;;;;;;;;;;18.34;47.10;102032.72;5038440;28;19929;-37
2022/01/06 10:50:14;;;;;;;;;;;;;;;18.32;46.07;102036.50;5034890;28;20375;-37
2022/01/06 10:52:45;;;;;;;;;;;;;;;18.29;46.75;102034.06;5037381;28;19929;-36
2022/01/06 10:55:13;;;;;;;;;;;;;;;18.30;47.25;102028.59;5035048;28;20027;-37
2022/01/06 10:58:09;;;;;;;;;;;;;;;18.30;46.70;102030.44;5038186;28;19935;-37
2022/01/06 11:00:36;;;;;;;;;;;;;;;18.31;47.15;102034.81;5034125;28;20019;-37
2022/01/06 11:03:06;;;;;;;;;;;;;;;18.32;47.08;102028.44;5036575;28;19932;-37
2022/01/06 11:05:34;;;;;;;;;;;;;;;18.29;46.76;102026.91;5034986;28;20062;-37
2022/01/06 11:08:01;;;;;;;;;;;;;;;18.29;46.88;102026.91;5034076;28;20013;-37
2022/01/06 11:10:27;;;;;;;;;;;;;;;18.30;47.19;102027.75;5037792;28;19929;-37
2022/01/06 11:12:54;;;;;;;;;;;;;;;18.30;47.00;102022.38;5032626;28;19929;-37
2022/01/06 11:15:20;;;;;;;;;;;;;;;18.29;47.37;102021.53;5038021;28;20324;-37
2022/01/06 11:17:47;;;;;;;;;;;;;;;18.30;47.11;102019.69;5035250;28;20261;-38
2022/01/06 11:20:24;;;;;;;;;;;;;;;18.32;47.22;102021.25;5037452;28;19928;-37
2022/01/06 11:22:52;;;;;;;;;;;;;;;18.35;46.99;102015.63;5036431;28;19929;-37
2022/01/06 11:25:34;;;;;;;;;;;;;;;18.38;46.54;102019.91;5036254;28;19939;-37
2022/01/06 11:28:01;;;;;;;;;;;;;;;18.36;46.64;102025.38;5035267;28;19933;-37
2022/01/06 11:30:37;;;;;;;;;;;;;;;18.38;46.49;102018.06;5037844;28;19929;-37
2022/01/06 11:33:04;;;;;;;;;;;;;;;18.39;46.64;102021.59;5037755;28;19987;-37
2022/01/06 11:35:45;;;;;;;;;;;;;;;18.37;47.01;102016.38;5036863;28;20517;-37
2022/01/06 11:38:15;;;;;;;;;;;;;;;18.36;46.55;102024.53;5036124;28;19929;-37
2022/01/06 11:40:44;;;;;;;;;;;;;;;18.34;46.93;102018.47;5035738;28;19928;-37
2022/01/06 11:43:14;;;;;;;;;;;;;;;18.34;46.88;102013.09;5035540;28;20425;-37
2022/01/06 11:45:41;;;;;;;;;;;;;;;18.32;47.00;102017.72;5037095;28;19987;-37
2022/01/06 11:48:09;;;;;;;;;;;;;;;18.30;46.67;102015.16;5037925;28;19966;-37
2022/01/06 11:50:37;;;;;;;;;;;;;;;18.31;47.38;102024.06;5033761;28;19935;-37
2022/01/06 11:53:04;;;;;;;;;;;;;;;18.32;46.40;102015.88;5033815;28;19939;-37
2022/01/06 11:55:30;;;;;;;;;;;;;;;18.31;46.07;102008.81;5037767;28;19932;-37
2022/01/06 11:58:06;;;;;;;;;;;;;;;18.31;47.35;102006.13;5039459;28;20275;-38
2022/01/06 12:00:35;;;;;;;;;;;;;;;18.29;47.72;102009.91;5034506;28;19931;-37
2022/01/06 12:03:03;;;;;;;;;;;;;;;18.21;47.57;102003.38;5041659;28;20384;-37
2022/01/06 12:05:48;;;;;;;;;;;;;;;18.18;47.54;102005.44;5037748;28;19933;-37
2022/01/06 12:08:16;;;;;;;;;;;;;;;18.16;48.07;102002.88;5041777;28;19929;-37
2022/01/06 12:10:44;;;;;;;;;;;;;;;18.15;47.62;102000.31;5041677;28;20050;-37
2022/01/06 12:13:10;;;;;;;;;;;;;;;18.16;46.96;101992.13;5038073;28;19928;-37
2022/01/06 12:15:53;;;;;;;;;;;;;;;18.17;46.63;101995.66;5039888;28;19936;-37
2022/01/06 12:18:27;;;;;;;;;;;;;;;18.15;47.00;101990.44;5039884;28;19929;-37
2022/01/06 12:20:54;;;;;;;;;;;;;;;18.13;47.17;101981.69;5041190;28;20395;-37
2022/01/06 12:23:21;;;;;;;;;;;;;;;18.13;47.05;101989.72;5038743;28;20332;-37
2022/01/06 12:25:58;;;;;;;;;;;;;;;18.13;47.31;101992.41;5043128;28;19929;-37
2022/01/06 12:28:25;;;;;;;;;;;;;;;18.12;47.34;101989.84;5040044;28;19929;-37
2022/01/06 12:30:56;;;;;;;;;;;;;;;18.11;46.80;101985.47;5040395;28;19928;-37
2022/01/06 12:33:23;;;;;;;;;;;;;;;18.10;47.67;101981.09;5042439;28;19929;-37
2022/01/06 12:35:51;;;;;;;;;;;;;;;18.09;47.37;101982.91;5038737;28;20031;-37
2022/01/06 12:38:25;;;;;;;;;;;;;;;18.10;47.76;101986.44;5037795;28;19933;-36
2022/01/06 12:40:52;;;;;;;;;;;;;;;18.11;48.15;101978.25;5038141;28;19933;-36
2022/01/06 12:43:33;;;;;;;;;;;;;;;18.12;47.45;101974.59;5035005;28;20240;-36